.
WxDataArchive / Data Records for 2010-01-08
2010-01-07 January 2010 2010-01-09

Data Records for Friday, 08 January 2010

Time	Temp	Chill	HIndex	Humid	Dewpt	 Wind 	HiWind	WindDir	Rain 	Barom 
-----	----	-----	------	-----	-----	------	------	-------	-----	----- 
00:00	15.4	15.4	15.4	84	11.4	2	5	270	0.00	29.953 
00:05	15.4	15.4	15.4	84	11.4	2	4	248	0.00	29.953 
00:10	15.2	15.2	15.2	84	11.3	1	4	270	0.00	29.953 
00:15	15.1	15.1	15.1	84	11.2	1	5	292	0.00	29.956 
00:20	14.9	14.9	14.9	84	11.0	2	5	248	0.00	29.956 
00:25	14.6	14.6	14.6	84	10.7	2	6	270	0.00	29.956 
00:30	14.6	14.6	14.6	84	10.7	2	6	270	0.00	29.956 
00:35	14.3	14.3	14.3	84	10.4	2	5	270	0.00	29.956 
00:40	14.3	14.3	14.3	84	10.4	2	5	248	0.00	29.956 
00:45	14.1	14.1	14.1	84	10.2	2	4	292	0.00	29.962 
00:50	14.0	14.0	14.0	84	10.1	1	2	248	0.00	29.962 
00:55	13.8	13.8	13.8	84	9.9	1	4	270	0.00	29.962 
01:00	13.6	13.6	13.6	84	9.7	2	4	248	0.00	29.962 
01:05	13.6	13.6	13.6	84	9.7	2	4	248	0.00	29.962 
01:10	13.5	13.5	13.5	84	9.6	2	4	248	0.00	29.962 
01:15	13.5	13.5	13.5	84	9.6	2	4	248	0.00	29.961 
01:20	13.5	13.5	13.5	83	9.3	1	3	248	0.00	29.961 
01:25	13.3	13.3	13.3	83	9.1	1	4	248	0.00	29.961 
01:30	13.1	13.1	13.1	83	8.9	1	3	270	0.00	29.965 
01:35	13.1	13.1	13.1	83	8.9	2	4	248	0.00	29.965 
01:40	12.9	12.9	12.9	83	8.7	1	3	270	0.00	29.965 
01:45	12.8	12.8	12.8	83	8.6	1	2	248	0.00	29.971 
01:50	12.8	12.8	12.8	83	8.6	1	4	248	0.00	29.971 
01:55	12.6	12.6	12.6	83	8.4	1	2	270	0.00	29.971 
02:00	12.6	12.6	12.6	82	8.2	2	5	248	0.00	29.973 
02:05	12.6	12.6	12.6	82	8.2	2	4	248	0.00	29.973 
02:10	12.4	12.4	12.4	82	8.0	1	3	270	0.00	29.973 
02:15	12.4	12.4	12.4	82	8.0	1	3	225	0.00	29.977 
02:20	12.4	12.4	12.4	82	8.0	2	4	270	0.00	29.977 
02:25	12.3	12.3	12.3	82	7.9	1	3	270	0.00	29.977 
02:30	12.1	12.1	12.1	82	7.7	1	3	270	0.00	29.987 
02:35	12.1	12.1	12.1	82	7.7	1	3	248	0.00	29.987 
02:40	11.9	11.9	11.9	82	7.5	2	4	270	0.00	29.987 
02:45	11.7	11.7	11.7	82	7.3	2	5	270	0.00	29.989 
02:50	11.6	11.6	11.6	81	6.9	1	3	248	0.00	29.989 
02:55	11.6	11.6	11.6	81	6.9	1	4	248	0.00	29.989 
03:00	11.4	11.4	11.4	81	6.7	1	3	270	0.00	29.997 
03:05	11.2	11.2	11.2	81	6.5	1	3	248	0.00	29.997 
03:10	11.1	11.1	11.1	81	6.4	1	3	248	0.00	29.997 
03:15	10.7	10.7	10.7	81	6.0	1	3	225	0.00	30.002 
03:20	10.7	10.7	10.7	82	6.3	1	3	248	0.00	30.002 
03:25	10.7	10.7	10.7	82	6.3	1	3	248	0.00	30.002 
03:30	10.7	10.7	10.7	82	6.3	1	3	248	0.00	30.005 
03:35	10.7	10.7	10.7	82	6.3	1	3	225	0.00	30.005 
03:40	10.9	10.9	10.9	82	6.5	1	3	248	0.00	30.005 
03:45	10.9	10.9	10.9	82	6.5	1	3	248	0.00	30.007 
03:50	10.9	10.9	10.9	82	6.5	1	2	248	0.00	30.007 
03:55	11.1	11.1	11.1	82	6.7	1	3	248	0.00	30.007 
04:00	11.1	11.1	11.1	83	7.0	1	3	248	0.00	30.009 
04:05	11.2	11.2	11.2	83	7.1	1	4	225	0.00	30.009 
04:10	11.2	11.2	11.2	83	7.1	1	3	248	0.00	30.009 
04:15	11.2	11.2	11.2	83	7.1	1	3	248	0.00	30.016 
04:20	11.4	11.4	11.4	83	7.3	1	2	248	0.00	30.016 
04:25	11.4	11.4	11.4	83	7.3	1	3	248	0.00	30.016 
04:30	11.6	11.6	11.6	83	7.5	1	5	248	0.00	30.015 
04:35	11.6	11.6	11.6	83	7.5	1	3	248	0.00	30.015 
04:40	11.6	11.6	11.6	83	7.5	1	4	248	0.00	30.015 
04:45	11.6	11.6	11.6	83	7.5	2	4	248	0.00	30.019 
04:50	11.6	11.6	11.6	83	7.5	1	2	248	0.00	30.019 
04:55	11.6	11.6	11.6	83	7.5	1	3	248	0.00	30.019 
05:00	11.4	11.4	11.4	83	7.3	1	4	270	0.00	30.029 
05:05	11.2	11.2	11.2	83	7.1	1	3	248	0.00	30.029 
05:10	11.1	11.1	11.1	82	6.7	1	4	248	0.00	30.029 
05:15	11.1	11.1	11.1	82	6.7	1	2	225	0.00	30.034 
05:20	10.9	10.9	10.9	82	6.5	1	4	248	0.00	30.034 
05:25	10.9	10.9	10.9	82	6.5	1	4	248	0.00	30.034 
05:30	10.9	10.9	10.9	83	6.8	1	4	270	0.00	30.039 
05:35	10.9	10.9	10.9	83	6.8	1	4	270	0.00	30.039 
05:40	11.1	11.1	11.1	83	7.0	1	3	270	0.00	30.039 
05:45	11.1	11.1	11.1	83	7.0	1	3	248	0.00	30.041 
05:50	11.1	11.1	11.1	83	7.0	1	4	270	0.00	30.041 
05:55	11.2	11.2	11.2	83	7.1	1	3	270	0.00	30.041 
06:00	11.4	11.4	11.4	83	7.3	2	4	270	0.00	30.054 
06:05	11.6	11.6	11.6	84	7.7	1	4	270	0.00	30.054 
06:10	11.7	11.7	11.7	84	7.8	2	3	270	0.00	30.054 
06:15	11.9	11.9	11.9	84	8.0	1	3	248	0.00	30.056 
06:20	11.7	11.7	11.7	83	7.6	2	5	248	0.00	30.056 
06:25	11.7	11.7	11.7	83	7.6	1	4	270	0.00	30.056 
06:30	11.7	11.7	11.7	83	7.6	1	3	270	0.00	30.064 
06:35	11.9	11.9	11.9	84	8.0	1	4	248	0.00	30.064 
06:40	12.1	12.1	12.1	84	8.2	2	3	248	0.00	30.064 
06:45	12.4	12.4	12.4	84	8.5	1	3	248	0.00	30.067 
06:50	12.6	12.6	12.6	84	8.7	1	3	248	0.00	30.067 
06:55	12.6	12.6	12.6	84	8.7	2	4	270	0.00	30.067 
07:00	12.8	12.8	12.8	84	8.9	1	2	270	0.00	30.068 
07:05	12.6	12.6	12.6	84	8.7	1	3	270	0.00	30.068 
07:10	12.6	12.6	12.6	84	8.7	1	3	248	0.00	30.068 
07:15	12.6	12.6	12.6	84	8.7	1	3	248	0.00	30.075 
07:20	12.8	12.8	12.8	84	8.9	1	3	270	0.00	30.075 
07:25	12.8	12.8	12.8	84	8.9	1	3	270	0.00	30.075 
07:30	12.6	12.6	12.6	84	8.7	1	2	270	0.00	30.083 
07:35	12.6	12.6	12.6	84	8.7	1	3	270	0.00	30.083 
07:40	12.6	12.6	12.6	84	8.7	1	3	270	0.00	30.083 
07:45	12.6	12.6	12.6	84	8.7	1	2	270	0.00	30.086 
07:50	12.6	12.6	12.6	84	8.7	1	3	248	0.00	30.086 
07:55	12.8	12.8	12.8	84	8.9	1	3	248	0.00	30.086 
08:00	12.9	12.9	12.9	84	9.0	1	3	248	0.00	30.093 
08:05	13.1	13.1	13.1	85	9.5	0	2	248	0.00	30.093 
08:10	13.5	13.5	13.5	85	9.8	1	2	248	0.00	30.093 
08:15	13.6	13.6	13.6	85	9.9	1	2	248	0.00	30.102 
08:20	13.8	13.8	13.8	85	10.1	1	2	248	0.00	30.102 
08:25	14.0	14.0	14.0	85	10.3	1	3	248	0.00	30.102 
08:30	14.1	14.1	14.1	85	10.4	1	3	248	0.00	30.109 
08:35	14.3	14.3	14.3	85	10.6	1	3	248	0.00	30.109 
08:40	14.4	14.4	14.4	85	10.7	1	2	248	0.00	30.109 
08:45	14.9	14.9	14.9	85	11.2	1	3	248	0.00	30.115 
08:50	15.2	15.2	15.2	85	11.5	1	3	248	0.00	30.115 
08:55	15.6	15.6	15.6	85	11.9	1	3	248	0.00	30.115 
09:00	15.9	15.9	15.9	85	12.2	1	3	292	0.00	30.123 
09:05	16.2	16.2	16.2	85	12.5	1	2	225	0.00	30.123 
09:10	16.4	16.4	16.4	85	12.7	1	2	315	0.00	30.123 
09:15	16.7	16.7	16.7	85	13.0	1	3	248	0.00	30.131 
09:20	16.9	16.9	16.9	85	13.2	1	3	248	0.00	30.131 
09:25	17.2	17.2	17.2	85	13.5	1	2	315	0.00	30.131 
09:30	17.3	17.3	17.3	85	13.6	1	2	248	0.00	30.140 
09:35	17.7	17.7	17.7	84	13.7	1	2	338	0.00	30.140 
09:40	17.8	17.8	17.8	84	13.8	1	3	315	0.00	30.140 
09:45	18.0	18.0	18.0	84	14.0	1	3	315	0.00	30.145 
09:50	18.4	18.4	18.4	84	14.4	1	3	338	0.00	30.145 
09:55	18.8	18.8	18.8	84	14.8	1	3	338	0.00	30.145 
10:00	19.1	19.1	19.1	84	15.1	1	3	338	0.00	30.149 
10:05	19.4	19.4	19.4	84	15.4	1	3	338	0.00	30.149 
10:10	19.7	19.7	19.7	84	15.7	1	3	270	0.00	30.149 
10:15	19.9	19.9	19.9	83	15.6	1	2	315	0.00	30.160 
10:20	20.2	20.2	20.2	84	16.2	0	2	315	0.00	30.160 
10:25	20.6	20.6	20.6	84	16.5	0	2	315	0.00	30.160 
10:30	21.0	21.0	21.0	83	16.7	0	3	270	0.00	30.166 
10:35	21.4	21.4	21.4	83	17.1	1	4	0	0.00	30.166 
10:40	22.1	22.1	22.1	82	17.5	1	3	338	0.00	30.166 
10:45	22.5	22.5	22.5	81	17.6	0	2	22	0.00	30.171 
10:50	22.9	22.9	22.9	80	17.7	2	4	0	0.00	30.171 
10:55	23.0	23.0	23.0	79	17.5	1	4	338	0.00	30.171 
11:00	23.2	23.2	23.2	79	17.7	1	5	22	0.00	30.172 
11:05	23.2	23.2	23.2	77	17.1	2	9	22	0.00	30.172 
11:10	23.2	23.2	23.2	77	17.1	2	5	338	0.00	30.172 
11:15	23.3	23.3	23.3	76	16.9	2	5	315	0.00	30.176 
11:20	23.5	23.5	23.5	75	16.8	1	3	270	0.00	30.176 
11:25	23.5	23.5	23.5	75	16.8	1	4	315	0.00	30.176 
11:30	23.5	23.5	23.5	75	16.8	1	2	315	0.00	30.183 
11:35	23.5	23.5	23.5	74	16.5	1	6	315	0.00	30.183 
11:40	23.5	23.5	23.5	74	16.5	1	3	0	0.00	30.183 
11:45	23.6	23.6	23.6	74	16.6	1	4	0	0.00	30.185 
11:50	23.8	23.8	23.8	74	16.7	1	4	45	0.00	30.185 
11:55	23.9	23.9	23.9	73	16.5	1	4	22	0.00	30.185 
12:00	24.1	24.1	24.1	73	16.7	1	4	22	0.00	30.185 
12:05	24.4	24.4	24.4	73	17.0	1	3	338	0.00	30.185 
12:10	24.5	24.5	24.5	73	17.1	1	3	338	0.00	30.185 
12:15	24.5	24.5	24.5	72	16.8	2	4	315	0.00	30.190 
12:20	24.7	24.7	24.7	72	17.0	1	3	338	0.00	30.190 
12:25	24.8	24.8	24.8	73	17.4	0	2	45	0.00	30.190 
12:30	25.0	25.0	25.0	72	17.3	1	3	22	0.00	30.190 
12:35	25.3	25.3	25.3	72	17.6	1	3	22	0.00	30.190 
12:40	25.8	25.8	25.8	72	18.0	1	4	0	0.00	30.190 
12:45	26.0	26.0	26.0	70	17.6	1	5	292	0.00	30.187 
12:50	26.0	26.0	26.0	70	17.6	1	5	292	0.00	30.187 
12:55	26.0	26.0	26.0	71	17.9	1	4	0	0.00	30.187 
13:00	26.0	26.0	26.0	70	17.6	1	5	270	0.00	30.188 
13:05	25.7	25.7	25.7	70	17.3	2	6	270	0.00	30.188 
13:10	25.6	25.6	25.6	71	17.5	2	5	270	0.00	30.188 
13:15	25.6	25.6	25.6	70	17.2	1	3	338	0.00	30.190 
13:20	25.7	25.7	25.7	70	17.3	1	3	0	0.00	30.190 
13:25	25.6	25.6	25.6	70	17.2	1	3	338	0.00	30.190 
13:30	25.4	25.4	25.4	70	17.0	1	3	338	0.00	30.189 
13:35	25.6	25.6	25.6	71	17.5	1	2	338	0.00	30.189 
13:40	25.6	25.6	25.6	71	17.5	1	5	338	0.00	30.189 
13:45	25.6	25.6	25.6	71	17.5	1	4	0	0.00	30.191 
13:50	25.8	25.8	25.8	71	17.7	1	4	0	0.00	30.191 
13:55	25.7	25.7	25.7	69	17.0	1	3	0	0.00	30.191 
14:00	25.7	25.7	25.7	69	17.0	1	4	338	0.00	30.199 
14:05	25.4	25.4	25.4	69	16.7	1	5	338	0.00	30.199 
14:10	25.4	25.4	25.4	69	16.7	2	4	22	0.00	30.199 
14:15	25.4	25.4	25.4	69	16.7	1	4	22	0.00	30.206 
14:20	25.3	25.3	25.3	69	16.6	0	2	338	0.00	30.206 
14:25	25.4	25.4	25.4	69	16.7	0	2	338	0.00	30.206 
14:30	25.7	25.7	25.7	69	17.0	1	3	112	0.00	30.205 
14:35	25.8	25.8	25.8	69	17.1	1	3	135	0.00	30.205 
14:40	25.7	25.7	25.7	69	17.0	1	5	292	0.00	30.205 
14:45	25.6	25.6	25.6	69	16.9	0	3	292	0.00	30.210 
14:50	25.7	25.7	25.7	70	17.3	0	2	292	0.00	30.210 
14:55	25.7	25.7	25.7	69	17.0	0	2	292	0.00	30.210 
15:00	25.8	25.8	25.8	69	17.1	0	3	292	0.00	30.214 
15:05	26.0	26.0	26.0	69	17.2	0	2	315	0.00	30.214 
15:10	26.3	26.3	26.3	69	17.5	1	3	315	0.00	30.214 
15:15	26.3	26.3	26.3	68	17.2	1	3	270	0.00	30.220 
15:20	26.1	26.1	26.1	68	17.0	1	4	338	0.00	30.220 
15:25	26.0	26.0	26.0	68	16.9	1	4	315	0.00	30.220 
15:30	26.0	26.0	26.0	69	17.2	1	2	338	0.00	30.223 
15:35	26.0	26.0	26.0	69	17.2	1	3	338	0.00	30.223 
15:40	26.1	26.1	26.1	69	17.3	1	4	338	0.00	30.223 
15:45	26.3	26.3	26.3	69	17.5	1	5	22	0.00	30.227 
15:50	26.3	26.3	26.3	69	17.5	1	3	292	0.00	30.227 
15:55	26.3	26.3	26.3	69	17.5	1	3	315	0.00	30.227 
16:00	26.0	26.0	26.0	69	17.2	1	3	292	0.00	30.235 
16:05	25.8	25.8	25.8	70	17.4	1	5	315	0.00	30.235 
16:10	25.6	25.6	25.6	71	17.5	1	4	315	0.00	30.235 
16:15	25.4	25.4	25.4	71	17.3	2	3	292	0.00	30.241 
16:20	25.3	25.3	25.3	72	17.6	1	3	315	0.00	30.241 
16:25	25.0	25.0	25.0	72	17.3	1	3	338	0.00	30.241 
16:30	24.8	24.8	24.8	73	17.4	1	3	270	0.00	30.254 
16:35	24.5	24.5	24.5	73	17.1	2	4	338	0.00	30.254 
16:40	24.5	24.5	24.5	74	17.4	1	3	225	0.00	30.254 
16:45	24.4	24.4	24.4	74	17.3	1	4	270	0.00	30.261 
16:50	24.4	24.4	24.4	75	17.6	1	3	270	0.00	30.261 
16:55	24.1	24.1	24.1	75	17.3	0	2	338	0.00	30.261 
17:00	24.1	24.1	24.1	76	17.7	0	2	338	0.00	30.270 
17:05	23.9	23.9	23.9	75	17.2	1	3	338	0.00	30.270 
17:10	23.6	23.6	23.6	75	16.9	1	4	248	0.00	30.270 
17:15	23.6	23.6	23.6	75	16.9	0	1	292	0.00	30.273 
17:20	23.6	23.6	23.6	75	16.9	0	2	292	0.00	30.273 
17:25	23.5	23.5	23.5	76	17.1	0	2	292	0.00	30.273 
17:30	23.5	23.5	23.5	76	17.1	1	3	315	0.00	30.275 
17:35	23.5	23.5	23.5	76	17.1	0	2	270	0.00	30.275 
17:40	23.5	23.5	23.5	76	17.1	0	2	270	0.00	30.275 
17:45	23.5	23.5	23.5	76	17.1	0	1	315	0.00	30.283 
17:50	23.5	23.5	23.5	76	17.1	0	1	315	0.00	30.283 
17:55	23.3	23.3	23.3	76	16.9	0	1	315	0.00	30.283 
18:00	23.3	23.3	23.3	76	16.9	0	1	315	0.00	30.287 
18:05	23.0	23.0	23.0	76	16.6	0	1	315	0.00	30.287 
18:10	22.9	22.9	22.9	76	16.5	0	1	315	0.00	30.287 
18:15	22.5	22.5	22.5	76	16.1	0	0	---	0.00	30.287 
18:20	22.4	22.4	22.4	77	16.3	0	0	---	0.00	30.287 
18:25	22.4	22.4	22.4	77	16.3	0	1	315	0.00	30.287 
18:30	22.4	22.4	22.4	77	16.3	0	1	315	0.00	30.297 
18:35	22.4	22.4	22.4	78	16.6	0	1	315	0.00	30.297 
18:40	22.4	22.4	22.4	78	16.6	0	1	315	0.00	30.297 
18:45	22.5	22.5	22.5	77	16.4	1	2	315	0.00	30.296 
18:50	22.7	22.7	22.7	77	16.6	1	3	270	0.00	30.296 
18:55	22.7	22.7	22.7	77	16.6	0	2	270	0.00	30.296 
19:00	22.7	22.7	22.7	77	16.6	1	3	270	0.00	30.303 
19:05	22.5	22.5	22.5	77	16.4	0	1	270	0.00	30.303 
19:10	22.5	22.5	22.5	77	16.4	0	1	270	0.00	30.303 
19:15	22.4	22.4	22.4	77	16.3	0	2	0	0.00	30.307 
19:20	22.2	22.2	22.2	77	16.1	1	3	0	0.00	30.307 
19:25	22.2	22.2	22.2	77	16.1	0	2	0	0.00	30.307 
19:30	22.1	22.1	22.1	77	16.0	0	1	0	0.00	30.316 
19:35	22.1	22.1	22.1	77	16.0	0	2	0	0.00	30.316 
19:40	22.1	22.1	22.1	77	16.0	0	1	0	0.00	30.316 
19:45	21.9	21.9	21.9	77	15.8	0	3	248	0.00	30.321 
19:50	21.9	21.9	21.9	77	15.8	0	1	248	0.00	30.321 
19:55	21.9	21.9	21.9	77	15.8	0	1	248	0.00	30.321 
20:00	21.8	21.8	21.8	77	15.7	0	1	248	0.00	30.322 
20:05	21.8	21.8	21.8	77	15.7	1	3	248	0.00	30.322 
20:10	21.8	21.8	21.8	77	15.7	0	4	338	0.00	30.322 
20:15	21.8	21.8	21.8	77	15.7	0	2	338	0.00	30.318 
20:20	21.8	21.8	21.8	77	15.7	0	2	338	0.00	30.318 
20:25	21.8	21.8	21.8	77	15.7	0	1	338	0.00	30.318 
20:30	21.8	21.8	21.8	77	15.7	0	1	338	0.00	30.317 
20:35	21.6	21.6	21.6	77	15.5	0	2	338	0.00	30.317 
20:40	21.4	21.4	21.4	77	15.3	0	2	338	0.00	30.317 
20:45	21.1	21.1	21.1	77	15.0	0	3	0	0.00	30.321 
20:50	21.0	21.0	21.0	77	14.9	0	1	0	0.00	30.321 
20:55	20.8	20.8	20.8	77	14.7	0	2	0	0.00	30.321 
21:00	20.5	20.5	20.5	77	14.5	0	1	0	0.00	30.322 
21:05	20.5	20.5	20.5	78	14.8	1	3	0	0.00	30.322 
21:10	20.3	20.3	20.3	77	14.3	0	2	112	0.00	30.322 
21:15	20.3	20.3	20.3	77	14.3	1	2	0	0.00	30.330 
21:20	20.3	20.3	20.3	78	14.6	0	2	0	0.00	30.330 
21:25	20.5	20.5	20.5	78	14.8	0	1	0	0.00	30.330 
21:30	20.5	20.5	20.5	78	14.8	0	1	0	0.00	30.330 
21:35	20.5	20.5	20.5	78	14.8	0	1	0	0.00	30.330 
21:40	20.5	20.5	20.5	78	14.8	0	2	0	0.00	30.330 
21:45	20.5	20.5	20.5	78	14.8	0	3	338	0.00	30.331 
21:50	20.6	20.6	20.6	77	14.6	1	4	338	0.00	30.331 
21:55	20.8	20.8	20.8	77	14.7	0	3	22	0.00	30.331 
22:00	20.8	20.8	20.8	77	14.7	1	3	0	0.00	30.333 
22:05	20.8	20.8	20.8	77	14.7	0	1	292	0.00	30.333 
22:10	20.6	20.6	20.6	77	14.6	0	1	292	0.00	30.333 
22:15	20.6	20.6	20.6	77	14.6	0	1	292	0.00	30.332 
22:20	20.6	20.6	20.6	77	14.6	0	1	292	0.00	30.332 
22:25	20.6	20.6	20.6	77	14.6	0	1	292	0.00	30.332 
22:30	20.5	20.5	20.5	77	14.5	0	1	292	0.00	30.338 
22:35	20.3	20.3	20.3	77	14.3	0	1	292	0.00	30.338 
22:40	20.2	20.2	20.2	78	14.5	0	1	292	0.00	30.338 
22:45	20.0	20.0	20.0	78	14.3	0	1	292	0.00	30.341 
22:50	19.7	19.7	19.7	78	14.0	0	0	---	0.00	30.341 
22:55	19.5	19.5	19.5	79	14.1	0	0	---	0.00	30.341 
23:00	19.4	19.4	19.4	79	14.0	0	1	292	0.00	30.345 
23:05	19.4	19.4	19.4	80	14.3	0	1	292	0.00	30.345 
23:10	19.2	19.2	19.2	80	14.1	0	1	292	0.00	30.345 
23:15	19.1	19.1	19.1	81	14.2	0	1	292	0.00	30.352 
23:20	19.1	19.1	19.1	81	14.2	0	1	292	0.00	30.352 
23:25	18.9	18.9	18.9	81	14.1	0	1	292	0.00	30.352 
23:30	18.9	18.9	18.9	82	14.3	0	0	---	0.00	30.355 
23:35	18.8	18.8	18.8	82	14.2	0	0	---	0.00	30.355 
23:40	18.8	18.8	18.8	82	14.2	0	1	292	0.00	30.355 
23:45	18.6	18.6	18.6	82	14.0	0	0	---	0.00	30.358 
23:50	18.4	18.4	18.4	82	13.8	0	1	292	0.00	30.358 
23:55	18.4	18.4	18.4	82	13.8	0	1	292	0.00	30.358 

CoCoRaHS
IN-AL-39
A2 Web Hosting
Creative Commons License
GoDaddy
search engine by freefind advanced

loaded 2018-11-12 19:35:43 • last modified 2010-11-18 10:43:29
Privacy PolicyDisclaimer
• wx.awcolley.com is powered by PmWiki v.2002016 •
• all content (unless otherwise noted) © 2018 A W Colley